sensor_id;sensor_type;location;lat;lon;timestamp;P1;durP1;ratioP1;P2;durP2;ratioP2
68647;SDS011;55632;51.962;16.116;2023-04-06T00:01:50;49.87;;;18.53;;
68647;SDS011;55632;51.962;16.116;2023-04-06T00:06:52;51.93;;;19.73;;
68647;SDS011;55632;51.962;16.116;2023-04-06T00:11:56;45.07;;;17.07;;
68647;SDS011;55632;51.962;16.116;2023-04-06T00:17:02;50.93;;;23.07;;
68647;SDS011;55632;51.962;16.116;2023-04-06T00:22:03;56.08;;;21.77;;
68647;SDS011;55632;51.962;16.116;2023-04-06T00:27:04;56.47;;;21.33;;
68647;SDS011;55632;51.962;16.116;2023-04-06T00:32:05;47.83;;;20.70;;
68647;SDS011;55632;51.962;16.116;2023-04-06T00:37:13;58.37;;;20.90;;
68647;SDS011;55632;51.962;16.116;2023-04-06T00:42:14;70.60;;;23.90;;
68647;SDS011;55632;51.962;16.116;2023-04-06T00:47:25;53.83;;;22.00;;
68647;SDS011;55632;51.962;16.116;2023-04-06T00:52:29;54.93;;;21.20;;
68647;SDS011;55632;51.962;16.116;2023-04-06T00:57:30;38.90;;;15.63;;
68647;SDS011;55632;51.962;16.116;2023-04-06T01:02:34;46.33;;;19.70;;
68647;SDS011;55632;51.962;16.116;2023-04-06T01:07:36;47.50;;;18.70;;
68647;SDS011;55632;51.962;16.116;2023-04-06T01:12:45;50.90;;;21.03;;
68647;SDS011;55632;51.962;16.116;2023-04-06T01:17:54;33.43;;;15.53;;
68647;SDS011;55632;51.962;16.116;2023-04-06T01:27:56;48.70;;;20.13;;
68647;SDS011;55632;51.962;16.116;2023-04-06T01:33:15;31.33;;;15.07;;
68647;SDS011;55632;51.962;16.116;2023-04-06T01:38:38;40.90;;;17.27;;
68647;SDS011;55632;51.962;16.116;2023-04-06T01:43:40;35.23;;;16.47;;
68647;SDS011;55632;51.962;16.116;2023-04-06T01:48:50;35.97;;;14.63;;
68647;SDS011;55632;51.962;16.116;2023-04-06T01:54:14;28.50;;;13.13;;
68647;SDS011;55632;51.962;16.116;2023-04-06T01:59:41;31.87;;;14.67;;
68647;SDS011;55632;51.962;16.116;2023-04-06T02:04:53;37.43;;;15.63;;
68647;SDS011;55632;51.962;16.116;2023-04-06T02:15:01;36.97;;;17.57;;
68647;SDS011;55632;51.962;16.116;2023-04-06T02:20:05;41.45;;;13.52;;
68647;SDS011;55632;51.962;16.116;2023-04-06T02:25:08;23.60;;;10.57;;
68647;SDS011;55632;51.962;16.116;2023-04-06T02:30:10;37.70;;;14.40;;
68647;SDS011;55632;51.962;16.116;2023-04-06T02:35:11;34.17;;;12.97;;
68647;SDS011;55632;51.962;16.116;2023-04-06T02:40:14;32.40;;;14.70;;
68647;SDS011;55632;51.962;16.116;2023-04-06T02:45:15;36.10;;;14.48;;
68647;SDS011;55632;51.962;16.116;2023-04-06T02:50:20;42.87;;;17.20;;
68647;SDS011;55632;51.962;16.116;2023-04-06T02:55:29;42.10;;;17.97;;
68647;SDS011;55632;51.962;16.116;2023-04-06T03:00:31;39.83;;;17.10;;
68647;SDS011;55632;51.962;16.116;2023-04-06T03:05:32;36.90;;;17.17;;
68647;SDS011;55632;51.962;16.116;2023-04-06T03:10:34;37.50;;;15.93;;
68647;SDS011;55632;51.962;16.116;2023-04-06T03:15:35;41.53;;;16.20;;
68647;SDS011;55632;51.962;16.116;2023-04-06T03:20:46;31.98;;;15.30;;
68647;SDS011;55632;51.962;16.116;2023-04-06T03:25:50;36.50;;;14.90;;
68647;SDS011;55632;51.962;16.116;2023-04-06T03:30:53;32.23;;;15.20;;
68647;SDS011;55632;51.962;16.116;2023-04-06T03:36:30;36.97;;;19.70;;
68647;SDS011;55632;51.962;16.116;2023-04-06T03:41:32;36.47;;;16.30;;
68647;SDS011;55632;51.962;16.116;2023-04-06T03:46:39;25.63;;;12.67;;
68647;SDS011;55632;51.962;16.116;2023-04-06T03:51:41;28.87;;;11.37;;
68647;SDS011;55632;51.962;16.116;2023-04-06T03:56:42;34.05;;;15.02;;
68647;SDS011;55632;51.962;16.116;2023-04-06T04:01:43;43.97;;;16.50;;
68647;SDS011;55632;51.962;16.116;2023-04-06T04:06:44;40.13;;;17.85;;
68647;SDS011;55632;51.962;16.116;2023-04-06T04:11:45;33.22;;;15.65;;
68647;SDS011;55632;51.962;16.116;2023-04-06T04:16:46;44.05;;;16.00;;
68647;SDS011;55632;51.962;16.116;2023-04-06T04:21:46;34.47;;;12.98;;
68647;SDS011;55632;51.962;16.116;2023-04-06T04:26:52;28.20;;;12.90;;
68647;SDS011;55632;51.962;16.116;2023-04-06T04:31:54;30.33;;;13.17;;
68647;SDS011;55632;51.962;16.116;2023-04-06T04:36:55;31.70;;;14.30;;
68647;SDS011;55632;51.962;16.116;2023-04-06T04:42:08;34.23;;;12.47;;
68647;SDS011;55632;51.962;16.116;2023-04-06T04:47:13;35.77;;;15.17;;
68647;SDS011;55632;51.962;16.116;2023-04-06T04:52:19;45.33;;;17.10;;
68647;SDS011;55632;51.962;16.116;2023-04-06T04:57:29;63.20;;;22.53;;
68647;SDS011;55632;51.962;16.116;2023-04-06T05:07:44;175.60;;;64.77;;
68647;SDS011;55632;51.962;16.116;2023-04-06T05:12:54;156.63;;;49.17;;
68647;SDS011;55632;51.962;16.116;2023-04-06T05:17:55;235.75;;;69.10;;
68647;SDS011;55632;51.962;16.116;2023-04-06T05:23:04;92.03;;;32.30;;
68647;SDS011;55632;51.962;16.116;2023-04-06T05:28:05;156.33;;;49.33;;
68647;SDS011;55632;51.962;16.116;2023-04-06T05:33:10;117.70;;;40.70;;
68647;SDS011;55632;51.962;16.116;2023-04-06T05:38:40;128.53;;;42.20;;
68647;SDS011;55632;51.962;16.116;2023-04-06T05:43:54;96.10;;;35.30;;
68647;SDS011;55632;51.962;16.116;2023-04-06T05:48:57;77.50;;;34.00;;
68647;SDS011;55632;51.962;16.116;2023-04-06T05:54:02;63.03;;;25.87;;
68647;SDS011;55632;51.962;16.116;2023-04-06T05:59:05;52.80;;;22.67;;
68647;SDS011;55632;51.962;16.116;2023-04-06T06:09:10;69.63;;;35.30;;
68647;SDS011;55632;51.962;16.116;2023-04-06T06:14:17;79.40;;;34.80;;
68647;SDS011;55632;51.962;16.116;2023-04-06T06:19:18;68.32;;;33.95;;
68647;SDS011;55632;51.962;16.116;2023-04-06T06:24:20;109.25;;;40.08;;
68647;SDS011;55632;51.962;16.116;2023-04-06T06:29:22;109.97;;;52.30;;
68647;SDS011;55632;51.962;16.116;2023-04-06T06:34:24;68.03;;;36.33;;
68647;SDS011;55632;51.962;16.116;2023-04-06T06:39:27;73.43;;;38.50;;
68647;SDS011;55632;51.962;16.116;2023-04-06T06:49:29;52.05;;;26.27;;
68647;SDS011;55632;51.962;16.116;2023-04-06T06:54:31;52.95;;;21.23;;
68647;SDS011;55632;51.962;16.116;2023-04-06T07:04:33;36.08;;;19.88;;
68647;SDS011;55632;51.962;16.116;2023-04-06T07:09:35;37.35;;;19.33;;
68647;SDS011;55632;51.962;16.116;2023-04-06T07:14:36;39.97;;;19.20;;
68647;SDS011;55632;51.962;16.116;2023-04-06T07:19:37;38.47;;;20.40;;
68647;SDS011;55632;51.962;16.116;2023-04-06T07:24:39;35.20;;;18.83;;
68647;SDS011;55632;51.962;16.116;2023-04-06T07:29:41;30.00;;;17.45;;
68647;SDS011;55632;51.962;16.116;2023-04-06T07:34:46;35.78;;;18.73;;
68647;SDS011;55632;51.962;16.116;2023-04-06T07:39:50;36.00;;;19.60;;
68647;SDS011;55632;51.962;16.116;2023-04-06T07:44:54;62.30;;;31.15;;
68647;SDS011;55632;51.962;16.116;2023-04-06T07:49:56;36.33;;;19.92;;
68647;SDS011;55632;51.962;16.116;2023-04-06T07:55:10;51.03;;;26.10;;
68647;SDS011;55632;51.962;16.116;2023-04-06T08:00:14;43.60;;;21.65;;
68647;SDS011;55632;51.962;16.116;2023-04-06T08:05:15;33.30;;;17.83;;
68647;SDS011;55632;51.962;16.116;2023-04-06T08:15:17;39.80;;;21.63;;
68647;SDS011;55632;51.962;16.116;2023-04-06T08:20:20;84.22;;;37.85;;
68647;SDS011;55632;51.962;16.116;2023-04-06T08:25:21;43.42;;;21.85;;
68647;SDS011;55632;51.962;16.116;2023-04-06T08:35:22;32.97;;;13.65;;
68647;SDS011;55632;51.962;16.116;2023-04-06T08:45:24;19.05;;;12.65;;
68647;SDS011;55632;51.962;16.116;2023-04-06T08:50:25;22.48;;;11.63;;
68647;SDS011;55632;51.962;16.116;2023-04-06T08:55:26;22.63;;;12.13;;
68647;SDS011;55632;51.962;16.116;2023-04-06T09:00:28;17.65;;;8.80;;
68647;SDS011;55632;51.962;16.116;2023-04-06T09:05:33;29.67;;;13.60;;
68647;SDS011;55632;51.962;16.116;2023-04-06T09:10:34;8.18;;;4.50;;
68647;SDS011;55632;51.962;16.116;2023-04-06T09:15:35;17.13;;;7.68;;
68647;SDS011;55632;51.962;16.116;2023-04-06T09:20:36;11.90;;;5.88;;
68647;SDS011;55632;51.962;16.116;2023-04-06T09:25:37;9.40;;;5.72;;
68647;SDS011;55632;51.962;16.116;2023-04-06T09:30:47;10.05;;;5.18;;
68647;SDS011;55632;51.962;16.116;2023-04-06T09:35:49;9.85;;;4.68;;
68647;SDS011;55632;51.962;16.116;2023-04-06T09:40:50;11.90;;;5.13;;
68647;SDS011;55632;51.962;16.116;2023-04-06T09:45:52;10.20;;;5.22;;
68647;SDS011;55632;51.962;16.116;2023-04-06T09:50:55;7.93;;;4.72;;
68647;SDS011;55632;51.962;16.116;2023-04-06T09:56:03;13.82;;;4.55;;
68647;SDS011;55632;51.962;16.116;2023-04-06T10:01:10;11.70;;;6.00;;
68647;SDS011;55632;51.962;16.116;2023-04-06T10:06:15;7.72;;;4.50;;
68647;SDS011;55632;51.962;16.116;2023-04-06T10:11:25;9.98;;;5.78;;
68647;SDS011;55632;51.962;16.116;2023-04-06T10:16:26;9.32;;;5.32;;
68647;SDS011;55632;51.962;16.116;2023-04-06T10:21:29;10.00;;;6.28;;
68647;SDS011;55632;51.962;16.116;2023-04-06T10:26:32;18.30;;;8.82;;
68647;SDS011;55632;51.962;16.116;2023-04-06T10:31:39;10.52;;;5.93;;
68647;SDS011;55632;51.962;16.116;2023-04-06T10:36:43;8.23;;;4.85;;
68647;SDS011;55632;51.962;16.116;2023-04-06T10:41:47;9.27;;;6.00;;
68647;SDS011;55632;51.962;16.116;2023-04-06T10:46:53;11.68;;;5.30;;
68647;SDS011;55632;51.962;16.116;2023-04-06T10:51:57;7.72;;;5.18;;
68647;SDS011;55632;51.962;16.116;2023-04-06T10:57:01;19.17;;;10.95;;
68647;SDS011;55632;51.962;16.116;2023-04-06T11:02:02;8.73;;;6.13;;
68647;SDS011;55632;51.962;16.116;2023-04-06T11:07:05;10.68;;;6.97;;
68647;SDS011;55632;51.962;16.116;2023-04-06T11:12:06;9.88;;;5.25;;
68647;SDS011;55632;51.962;16.116;2023-04-06T11:17:07;6.93;;;4.43;;
68647;SDS011;55632;51.962;16.116;2023-04-06T11:22:08;10.68;;;5.07;;
68647;SDS011;55632;51.962;16.116;2023-04-06T11:27:09;8.32;;;4.45;;
68647;SDS011;55632;51.962;16.116;2023-04-06T11:32:11;6.55;;;4.55;;
68647;SDS011;55632;51.962;16.116;2023-04-06T11:37:20;8.45;;;4.22;;
68647;SDS011;55632;51.962;16.116;2023-04-06T11:42:21;8.82;;;5.40;;
68647;SDS011;55632;51.962;16.116;2023-04-06T11:47:33;8.07;;;4.85;;
68647;SDS011;55632;51.962;16.116;2023-04-06T11:52:40;14.43;;;5.80;;
68647;SDS011;55632;51.962;16.116;2023-04-06T11:57:42;9.65;;;5.25;;
68647;SDS011;55632;51.962;16.116;2023-04-06T12:02:47;12.25;;;5.70;;
68647;SDS011;55632;51.962;16.116;2023-04-06T12:07:48;9.27;;;5.75;;
68647;SDS011;55632;51.962;16.116;2023-04-06T12:12:49;12.05;;;7.10;;
68647;SDS011;55632;51.962;16.116;2023-04-06T12:17:51;6.90;;;5.05;;
68647;SDS011;55632;51.962;16.116;2023-04-06T12:22:54;11.48;;;5.40;;
68647;SDS011;55632;51.962;16.116;2023-04-06T12:27:55;7.97;;;5.10;;
68647;SDS011;55632;51.962;16.116;2023-04-06T12:33:00;10.88;;;5.63;;
68647;SDS011;55632;51.962;16.116;2023-04-06T12:38:01;13.20;;;6.68;;
68647;SDS011;55632;51.962;16.116;2023-04-06T12:43:04;14.07;;;6.78;;
68647;SDS011;55632;51.962;16.116;2023-04-06T12:48:05;17.48;;;7.68;;
68647;SDS011;55632;51.962;16.116;2023-04-06T12:53:06;10.48;;;6.32;;
68647;SDS011;55632;51.962;16.116;2023-04-06T12:58:07;11.35;;;5.10;;
68647;SDS011;55632;51.962;16.116;2023-04-06T13:03:11;13.82;;;5.47;;
68647;SDS011;55632;51.962;16.116;2023-04-06T13:08:12;9.40;;;5.70;;
68647;SDS011;55632;51.962;16.116;2023-04-06T13:13:14;10.07;;;5.60;;
68647;SDS011;55632;51.962;16.116;2023-04-06T13:18:15;9.82;;;5.22;;
68647;SDS011;55632;51.962;16.116;2023-04-06T13:23:20;9.88;;;5.55;;
68647;SDS011;55632;51.962;16.116;2023-04-06T13:28:24;16.90;;;7.28;;
68647;SDS011;55632;51.962;16.116;2023-04-06T13:33:26;9.43;;;5.28;;
68647;SDS011;55632;51.962;16.116;2023-04-06T13:38:27;11.18;;;9.43;;
68647;SDS011;55632;51.962;16.116;2023-04-06T13:43:30;10.65;;;6.00;;
68647;SDS011;55632;51.962;16.116;2023-04-06T13:48:33;12.05;;;9.13;;
68647;SDS011;55632;51.962;16.116;2023-04-06T13:53:33;9.32;;;6.00;;
68647;SDS011;55632;51.962;16.116;2023-04-06T13:58:37;8.77;;;6.88;;
68647;SDS011;55632;51.962;16.116;2023-04-06T14:03:38;10.85;;;6.90;;
68647;SDS011;55632;51.962;16.116;2023-04-06T14:08:42;20.17;;;12.73;;
68647;SDS011;55632;51.962;16.116;2023-04-06T14:13:42;9.43;;;6.63;;
68647;SDS011;55632;51.962;16.116;2023-04-06T14:18:43;20.40;;;8.43;;
68647;SDS011;55632;51.962;16.116;2023-04-06T14:23:44;13.52;;;5.78;;
68647;SDS011;55632;51.962;16.116;2023-04-06T14:28:51;11.82;;;6.80;;
68647;SDS011;55632;51.962;16.116;2023-04-06T14:33:52;19.98;;;8.95;;
68647;SDS011;55632;51.962;16.116;2023-04-06T14:38:53;7.80;;;5.35;;
68647;SDS011;55632;51.962;16.116;2023-04-06T14:43:54;10.93;;;5.93;;
68647;SDS011;55632;51.962;16.116;2023-04-06T14:48:55;10.50;;;6.28;;
68647;SDS011;55632;51.962;16.116;2023-04-06T14:53:57;17.95;;;5.82;;
68647;SDS011;55632;51.962;16.116;2023-04-06T14:59:00;9.20;;;5.18;;
68647;SDS011;55632;51.962;16.116;2023-04-06T15:04:02;14.15;;;7.85;;
68647;SDS011;55632;51.962;16.116;2023-04-06T15:09:03;9.02;;;5.60;;
68647;SDS011;55632;51.962;16.116;2023-04-06T15:14:05;8.40;;;5.47;;
68647;SDS011;55632;51.962;16.116;2023-04-06T15:19:09;7.95;;;5.82;;
68647;SDS011;55632;51.962;16.116;2023-04-06T15:24:11;9.77;;;4.90;;
68647;SDS011;55632;51.962;16.116;2023-04-06T15:29:11;9.70;;;6.07;;
68647;SDS011;55632;51.962;16.116;2023-04-06T15:34:12;7.57;;;4.25;;
68647;SDS011;55632;51.962;16.116;2023-04-06T15:39:16;9.75;;;4.70;;
68647;SDS011;55632;51.962;16.116;2023-04-06T15:44:18;9.23;;;4.75;;
68647;SDS011;55632;51.962;16.116;2023-04-06T15:49:19;10.43;;;5.07;;
68647;SDS011;55632;51.962;16.116;2023-04-06T15:54:20;7.82;;;4.75;;
68647;SDS011;55632;51.962;16.116;2023-04-06T15:59:21;8.38;;;5.28;;
68647;SDS011;55632;51.962;16.116;2023-04-06T16:04:22;8.75;;;4.75;;
68647;SDS011;55632;51.962;16.116;2023-04-06T16:09:25;10.88;;;5.00;;
68647;SDS011;55632;51.962;16.116;2023-04-06T16:14:27;9.75;;;5.13;;
68647;SDS011;55632;51.962;16.116;2023-04-06T16:19:28;51.85;;;46.38;;
68647;SDS011;55632;51.962;16.116;2023-04-06T16:24:29;819.78;;;224.88;;
68647;SDS011;55632;51.962;16.116;2023-04-06T16:29:30;449.92;;;103.63;;
68647;SDS011;55632;51.962;16.116;2023-04-06T16:34:31;158.90;;;35.47;;
68647;SDS011;55632;51.962;16.116;2023-04-06T16:39:35;537.67;;;125.07;;
68647;SDS011;55632;51.962;16.116;2023-04-06T16:44:35;823.50;;;240.15;;
68647;SDS011;55632;51.962;16.116;2023-04-06T16:49:36;585.42;;;165.27;;
68647;SDS011;55632;51.962;16.116;2023-04-06T16:54:37;340.50;;;86.10;;
68647;SDS011;55632;51.962;16.116;2023-04-06T16:59:38;33.72;;;13.23;;
68647;SDS011;55632;51.962;16.116;2023-04-06T17:04:39;636.70;;;281.15;;
68647;SDS011;55632;51.962;16.116;2023-04-06T17:09:40;160.88;;;74.93;;
68647;SDS011;55632;51.962;16.116;2023-04-06T17:14:41;33.83;;;18.83;;
68647;SDS011;55632;51.962;16.116;2023-04-06T17:19:43;18.20;;;7.00;;
68647;SDS011;55632;51.962;16.116;2023-04-06T17:24:44;37.28;;;16.48;;
68647;SDS011;55632;51.962;16.116;2023-04-06T17:29:45;12.88;;;6.00;;
68647;SDS011;55632;51.962;16.116;2023-04-06T17:34:46;10.85;;;5.50;;
68647;SDS011;55632;51.962;16.116;2023-04-06T17:39:47;11.18;;;5.65;;
68647;SDS011;55632;51.962;16.116;2023-04-06T17:44:48;14.85;;;6.35;;
68647;SDS011;55632;51.962;16.116;2023-04-06T17:49:49;8.75;;;5.40;;
68647;SDS011;55632;51.962;16.116;2023-04-06T17:54:50;8.45;;;4.60;;
68647;SDS011;55632;51.962;16.116;2023-04-06T17:59:51;20.40;;;8.57;;
68647;SDS011;55632;51.962;16.116;2023-04-06T18:04:53;20.35;;;10.45;;
68647;SDS011;55632;51.962;16.116;2023-04-06T18:09:54;18.40;;;8.68;;
68647;SDS011;55632;51.962;16.116;2023-04-06T18:14:55;9.38;;;6.20;;
68647;SDS011;55632;51.962;16.116;2023-04-06T18:19:57;192.95;;;59.42;;
68647;SDS011;55632;51.962;16.116;2023-04-06T18:24:58;54.70;;;19.30;;
68647;SDS011;55632;51.962;16.116;2023-04-06T18:30:01;39.53;;;15.27;;
68647;SDS011;55632;51.962;16.116;2023-04-06T18:35:02;26.88;;;10.93;;
68647;SDS011;55632;51.962;16.116;2023-04-06T18:40:04;79.50;;;26.33;;
68647;SDS011;55632;51.962;16.116;2023-04-06T18:45:06;109.57;;;35.03;;
68647;SDS011;55632;51.962;16.116;2023-04-06T18:50:09;31.15;;;13.60;;
68647;SDS011;55632;51.962;16.116;2023-04-06T18:55:10;32.88;;;14.70;;
68647;SDS011;55632;51.962;16.116;2023-04-06T19:00:11;32.58;;;13.25;;
68647;SDS011;55632;51.962;16.116;2023-04-06T19:05:13;32.45;;;13.65;;
68647;SDS011;55632;51.962;16.116;2023-04-06T19:10:14;42.85;;;17.20;;
68647;SDS011;55632;51.962;16.116;2023-04-06T19:15:15;37.35;;;13.98;;
68647;SDS011;55632;51.962;16.116;2023-04-06T19:20:17;37.63;;;15.73;;
68647;SDS011;55632;51.962;16.116;2023-04-06T19:25:18;35.58;;;15.85;;
68647;SDS011;55632;51.962;16.116;2023-04-06T19:35:19;24.63;;;12.10;;
68647;SDS011;55632;51.962;16.116;2023-04-06T19:45:24;59.22;;;23.77;;
68647;SDS011;55632;51.962;16.116;2023-04-06T19:55:25;88.05;;;30.90;;
68647;SDS011;55632;51.962;16.116;2023-04-06T20:05:27;76.75;;;28.90;;
68647;SDS011;55632;51.962;16.116;2023-04-06T20:10:30;68.65;;;27.75;;
68647;SDS011;55632;51.962;16.116;2023-04-06T20:15:32;90.47;;;31.75;;
68647;SDS011;55632;51.962;16.116;2023-04-06T20:25:37;161.50;;;57.05;;
68647;SDS011;55632;51.962;16.116;2023-04-06T20:30:49;225.25;;;82.05;;
68647;SDS011;55632;51.962;16.116;2023-04-06T20:35:57;129.23;;;51.28;;
68647;SDS011;55632;51.962;16.116;2023-04-06T20:40:59;114.00;;;43.45;;
68647;SDS011;55632;51.962;16.116;2023-04-06T20:46:01;81.80;;;34.05;;
68647;SDS011;55632;51.962;16.116;2023-04-06T20:56:03;92.57;;;35.13;;
68647;SDS011;55632;51.962;16.116;2023-04-06T21:06:10;477.48;;;139.02;;
68647;SDS011;55632;51.962;16.116;2023-04-06T21:11:12;259.23;;;86.50;;
68647;SDS011;55632;51.962;16.116;2023-04-06T21:21:14;367.10;;;105.25;;
68647;SDS011;55632;51.962;16.116;2023-04-06T21:31:15;147.05;;;52.67;;
68647;SDS011;55632;51.962;16.116;2023-04-06T21:36:19;112.28;;;44.08;;
68647;SDS011;55632;51.962;16.116;2023-04-06T21:41:23;90.68;;;36.53;;
68647;SDS011;55632;51.962;16.116;2023-04-06T21:46:27;77.32;;;33.05;;
68647;SDS011;55632;51.962;16.116;2023-04-06T21:56:31;65.47;;;26.10;;
68647;SDS011;55632;51.962;16.116;2023-04-06T22:01:35;74.57;;;28.08;;
68647;SDS011;55632;51.962;16.116;2023-04-06T22:06:36;242.63;;;69.40;;
68647;SDS011;55632;51.962;16.116;2023-04-06T22:16:43;134.27;;;43.55;;
68647;SDS011;55632;51.962;16.116;2023-04-06T22:21:44;109.57;;;35.28;;
68647;SDS011;55632;51.962;16.116;2023-04-06T22:26:45;132.63;;;42.42;;
68647;SDS011;55632;51.962;16.116;2023-04-06T22:36:46;120.28;;;39.72;;
68647;SDS011;55632;51.962;16.116;2023-04-06T22:46:48;99.43;;;38.05;;
68647;SDS011;55632;51.962;16.116;2023-04-06T22:56:52;79.00;;;30.63;;
68647;SDS011;55632;51.962;16.116;2023-04-06T23:01:54;82.18;;;28.33;;
68647;SDS011;55632;51.962;16.116;2023-04-06T23:07:03;57.75;;;22.65;;
68647;SDS011;55632;51.962;16.116;2023-04-06T23:12:09;75.35;;;27.33;;
68647;SDS011;55632;51.962;16.116;2023-04-06T23:17:10;73.88;;;28.83;;
68647;SDS011;55632;51.962;16.116;2023-04-06T23:22:11;50.83;;;21.25;;
68647;SDS011;55632;51.962;16.116;2023-04-06T23:32:13;35.15;;;17.52;;
68647;SDS011;55632;51.962;16.116;2023-04-06T23:42:18;23.45;;;13.07;;
68647;SDS011;55632;51.962;16.116;2023-04-06T23:47:19;26.33;;;13.00;;
68647;SDS011;55632;51.962;16.116;2023-04-06T23:52:24;44.03;;;18.05;;
